Time;durP1;ratioP1;P1;durP2;ratioP2;P2;SDS_P1;SDS_P2;PMS_P1;PMS_P2;Temp;Humidity;BMP_temperature;BMP_pressure;BME280_temperature;BME280_humidity;BME280_pressure;Samples;Min_cycle;Max_cycle;Signal;HPM_P1;HPM_P2
2023/12/23 00:02:11;;;;;;;;;2.00;2.00;;;;;9.20;100.00;101781.91;5039228;28;45702;-81
2023/12/23 00:04:44;;;;;;;;;2.00;1.00;;;;;9.50;100.00;101824.25;5039176;28;48157;-77
2023/12/23 00:07:12;;;;;;;;;1.00;1.00;;;;;9.68;100.00;101851.06;5040076;28;45234;-77
2023/12/23 00:10:14;;;;;;;;;1.33;1.00;;;;;9.50;100.00;101827.78;5038782;28;45598;-78
2023/12/23 00:12:55;;;;;;;;;1.33;1.33;;;;;9.53;100.00;101838.25;5020870;28;45307;-77
2023/12/23 00:15:35;;;;;;;;;2.00;0.00;;;;;9.59;100.00;101830.16;5021063;28;47166;-78
2023/12/23 00:18:25;;;;;;;;;1.33;1.33;;;;;9.94;100.00;101904.09;5020922;28;45508;-78
2023/12/23 00:21:15;;;;;;;;;0.33;0.00;;;;;9.32;100.00;101786.03;5039143;28;45397;-77
2023/12/23 00:23:44;;;;;;;;;2.00;0.00;;;;;9.31;100.00;101768.44;5017809;28;45644;-78
2023/12/23 00:26:09;;;;;;;;;2.00;0.00;;;;;9.42;100.00;101813.91;5032115;28;46423;-78
2023/12/23 00:28:52;;;;;;;;;0.00;0.00;;;;;9.49;100.00;101826.03;5038877;28;45368;-78
2023/12/23 00:31:23;;;;;;;;;1.00;1.00;;;;;9.59;100.00;101838.09;5028651;28;45432;-78
2023/12/23 00:34:27;;;;;;;;;1.33;1.00;;;;;9.94;100.00;101914.66;5022285;28;45433;-78
2023/12/23 00:40:49;;;;;;;;;;;;;;;;;;;;;
2023/12/23 00:43:50;;;;;;;;;0.00;0.00;;;;;9.79;100.00;101871.91;5028724;28;45415;-79
2023/12/23 00:46:53;;;;;;;;;1.00;0.00;;;;;9.49;100.00;101833.13;5019666;28;45694;-78
2023/12/23 00:49:29;;;;;;;;;1.00;1.00;;;;;9.73;100.00;101875.56;5018722;28;45514;-78
2023/12/23 00:52:22;;;;;;;;;0.33;0.33;;;;;9.50;100.00;101825.13;5041321;28;45348;-78
2023/12/23 00:55:19;;;;;;;;;1.33;0.67;;;;;9.39;100.00;101806.94;5031673;28;45647;-78
2023/12/23 00:57:57;;;;;;;;;;;;;;;;;;;;;
2023/12/23 01:00:32;;;;;;;;;3.00;0.00;;;;;9.57;100.00;101824.06;5039764;28;75008;-78
2023/12/23 01:06:28;;;;;;;;;0.33;0.33;;;;;9.59;100.00;101819.59;5020476;28;45290;-78
2023/12/23 01:09:48;;;;;;;;;1.00;0.00;;;;;9.83;100.00;101869.16;5020845;28;45659;-77
2023/12/23 01:15:29;;;;;;;;;0.00;0.00;;;;;9.33;100.00;101767.50;5038039;28;45957;-77
2023/12/23 01:17:54;;;;;;;;;1.00;1.00;;;;;9.55;100.00;101802.13;5037459;28;45438;-77
2023/12/23 01:20:20;;;;;;;;;2.00;0.00;;;;;9.84;100.00;101851.50;5040013;28;45527;-77
2023/12/23 01:28:44;;;;;;;;;2.00;0.33;;;;;9.34;100.00;101786.84;5039453;28;45276;-78
2023/12/23 01:31:45;;;;;;;;;3.33;0.67;;;;;9.51;100.00;101815.44;5021180;28;45262;-78
2023/12/23 01:34:19;;;;;;;;;0.33;0.00;;;;;9.56;100.00;101837.28;5043032;28;46356;-77
2023/12/23 01:37:14;;;;;;;;;1.33;0.33;;;;;10.00;100.00;101916.25;5019803;28;45492;-77
2023/12/23 01:40:01;;;;;;;;;0.33;0.33;;;;;9.79;100.00;101877.19;5031206;28;45487;-78
2023/12/23 01:42:26;;;;;;;;;0.67;0.67;;;;;9.38;100.00;101789.38;5018803;28;45538;-78
2023/12/23 01:45:25;;;;;;;;;4.67;0.00;;;;;9.85;100.00;101879.66;5039023;28;46543;-78
2023/12/23 01:48:04;;;;;;;;;0.00;0.00;;;;;9.60;100.00;101821.34;5030266;28;45278;-77
2023/12/23 01:50:56;;;;;;;;;1.33;0.00;;;;;10.00;100.00;101881.03;5043431;28;45395;-78
2023/12/23 01:53:35;;;;;;;;;0.00;0.00;;;;;9.59;100.00;101813.44;5042710;28;45234;-78
2023/12/23 01:56:12;;;;;;;;;1.33;0.00;;;;;9.53;100.00;101806.56;5031554;28;45658;-78
2023/12/23 01:59:05;;;;;;;;;1.00;1.00;;;;;9.34;100.00;101781.56;5042220;28;45441;-79
2023/12/23 02:01:36;;;;;;;;;0.00;0.00;;;;;9.71;100.00;101835.13;4960807;28;45435;-78
2023/12/23 02:07:17;;;;;;;;;1.00;0.00;;;;;9.39;100.00;101771.75;5032621;28;45636;-79
2023/12/23 02:10:03;;;;;;;;;0.00;0.00;;;;;9.91;100.00;101839.88;5042233;28;45381;-79
2023/12/23 02:13:20;;;;;;;;;0.00;0.00;;;;;10.01;100.00;101840.47;5022522;28;45321;-78
2023/12/23 02:16:08;;;;;;;;;2.00;0.00;;;;;10.02;100.00;101840.41;5042509;28;45333;-79
2023/12/23 02:19:04;;;;;;;;;0.33;0.00;;;;;9.65;100.00;101808.88;5040883;28;46312;-79
2023/12/23 02:21:54;;;;;;;;;0.00;0.00;;;;;9.41;100.00;101730.34;5018594;28;45254;-77
2023/12/23 02:24:26;;;;;;;;;0.00;0.00;;;;;9.70;100.00;101787.63;5009165;28;45452;-77
2023/12/23 02:27:09;;;;;;;;;3.00;0.00;;;;;9.94;100.00;101843.31;5016238;28;45576;-77
2023/12/23 02:30:13;;;;;;;;;0.67;0.00;;;;;9.95;100.00;101829.16;5040663;28;45605;-77
2023/12/23 02:33:00;;;;;;;;;1.33;0.00;;;;;9.71;100.00;101803.44;5013654;28;45314;-77
2023/12/23 02:35:59;;;;;;;;;0.00;0.00;;;;;9.74;100.00;101805.13;5042874;28;45345;-76
2023/12/23 02:38:44;;;;;;;;;0.00;0.00;;;;;10.14;100.00;101853.34;5023510;28;46289;-77
2023/12/23 02:41:37;;;;;;;;;0.33;0.00;;;;;10.17;100.00;101840.03;5035978;28;47672;-77
2023/12/23 02:44:12;;;;;;;;;2.33;0.00;;;;;9.92;100.00;101809.88;5030768;28;45329;-77
2023/12/23 02:46:38;;;;;;;;;0.33;0.33;;;;;9.95;100.00;101799.22;5017579;28;45286;-77
2023/12/23 02:49:15;;;;;;;;;1.00;0.00;;;;;10.16;100.00;101840.94;5041802;28;45613;-77
2023/12/23 02:51:52;;;;;;;;;1.00;0.00;;;;;9.81;100.00;101785.56;5040597;28;45476;-77
2023/12/23 02:54:20;;;;;;;;;2.00;0.00;;;;;9.58;100.00;101762.44;5034735;28;45439;-77
2023/12/23 02:56:46;;;;;;;;;0.00;0.00;;;;;10.19;100.00;101850.56;5045453;28;45304;-77
2023/12/23 02:59:19;;;;;;;;;0.00;0.00;;;;;9.54;100.00;101744.06;5025843;28;45584;-78
2023/12/23 03:01:45;;;;;;;;;1.00;0.00;;;;;9.56;100.00;101752.78;5021446;28;47721;-78
2023/12/23 03:04:16;;;;;;;;;2.00;0.00;;;;;9.71;100.00;101790.22;5023042;28;45596;-78
2023/12/23 03:10:08;;;;;;;;;0.00;0.00;;;;;10.24;100.00;101864.53;5035476;28;45331;-78
2023/12/23 03:13:03;;;;;;;;;0.00;0.00;;;;;10.27;100.00;101869.72;5040509;28;46782;-78
2023/12/23 03:16:29;;;;;;;;;1.00;0.00;;;;;10.26;100.00;101857.41;5008642;28;45259;-79
2023/12/23 03:19:33;;;;;;;;;0.00;0.00;;;;;10.18;100.00;101856.75;5027411;28;45595;-78
2023/12/23 03:25:03;;;;;;;;;0.00;0.00;;;;;10.06;100.00;101838.56;5041847;28;47516;-78
2023/12/23 03:28:04;;;;;;;;;0.00;0.00;;;;;9.61;100.00;101761.47;5049485;28;45313;-78
2023/12/23 03:30:29;;;;;;;;;0.00;0.00;;;;;9.62;100.00;101760.56;5034597;28;45479;-78
2023/12/23 03:35:43;;;;;;;;;1.67;0.00;;;;;10.27;100.00;101846.78;5039776;28;45666;-77
2023/12/23 03:38:55;;;;;;;;;;;;;;;;;;;;;
2023/12/23 03:41:31;;;;;;;;;0.00;0.00;;;;;10.10;100.00;101784.72;5038248;28;68821;-77
2023/12/23 03:43:56;;;;;;;;;0.67;0.00;;;;;10.21;100.00;101802.00;5039533;28;45577;-78
2023/12/23 03:46:22;;;;;;;;;0.00;0.00;;;;;10.27;100.00;101806.25;5039578;28;45485;-77
2023/12/23 03:48:59;;;;;;;;;0.00;0.00;;;;;9.69;100.00;101696.94;5041770;28;45488;-78
2023/12/23 03:51:25;;;;;;;;;0.00;0.00;;;;;9.63;100.00;101709.47;5011826;28;45375;-78
2023/12/23 03:53:51;;;;;;;;;0.00;0.00;;;;;10.10;100.00;101788.22;5040466;28;45348;-78
2023/12/23 03:56:16;;;;;;;;;0.00;0.00;;;;;10.12;100.00;101791.66;5036517;28;48383;-77
2023/12/23 03:58:42;;;;;;;;;1.00;0.33;;;;;10.10;100.00;101795.28;5018877;28;45409;-77
2023/12/23 04:01:07;;;;;;;;;0.00;0.00;;;;;10.19;100.00;101814.41;5039877;28;49315;-78
2023/12/23 04:03:32;;;;;;;;;0.00;0.00;;;;;10.17;100.00;101800.38;5033061;28;56467;-76
2023/12/23 04:05:58;;;;;;;;;0.00;0.00;;;;;10.06;100.00;101775.13;5035280;28;46377;-77
2023/12/23 04:08:23;;;;;;;;;1.67;0.00;;;;;10.08;100.00;101792.66;5039567;28;45349;-78
2023/12/23 04:10:48;;;;;;;;;0.00;0.00;;;;;10.21;100.00;101804.66;5040065;28;45599;-78
2023/12/23 04:13:16;;;;;;;;;1.00;0.00;;;;;10.24;100.00;101798.44;5049555;28;45717;-77
2023/12/23 04:15:41;;;;;;;;;0.00;0.00;;;;;10.04;100.00;101761.09;5021506;28;45448;-76
2023/12/23 04:18:06;;;;;;;;;0.00;0.00;;;;;10.16;100.00;101781.91;5025099;28;45514;-78
2023/12/23 04:20:32;;;;;;;;;0.00;0.00;;;;;10.06;100.00;101748.69;5039890;28;45522;-78
2023/12/23 04:22:57;;;;;;;;;0.00;0.00;;;;;10.21;100.00;101780.00;5021731;28;45881;-77
2023/12/23 04:25:23;;;;;;;;;1.00;0.00;;;;;10.19;100.00;101785.34;5035379;28;54770;-77
2023/12/23 04:27:51;;;;;;;;;0.00;0.00;;;;;10.15;100.00;101774.88;5029514;28;45440;-77
2023/12/23 04:30:16;;;;;;;;;1.00;0.00;;;;;10.02;100.00;101758.50;5039330;28;45480;-77
2023/12/23 04:32:42;;;;;;;;;0.00;0.00;;;;;10.11;100.00;101775.88;5020750;28;45620;-78
2023/12/23 04:35:07;;;;;;;;;0.00;0.00;;;;;10.05;100.00;101774.25;5043839;28;46249;-77
2023/12/23 04:37:33;;;;;;;;;0.00;0.00;;;;;10.11;100.00;101786.44;5040488;28;45294;-76
2023/12/23 04:39:58;;;;;;;;;1.00;0.00;;;;;10.02;100.00;101763.78;5039342;28;45234;-77
2023/12/23 04:42:23;;;;;;;;;1.00;0.00;;;;;10.12;100.00;101778.47;5022143;28;45735;-77
2023/12/23 04:44:49;;;;;;;;;0.33;0.00;;;;;10.08;100.00;101760.09;5037115;28;53488;-78
2023/12/23 04:47:14;;;;;;;;;0.00;0.00;;;;;10.12;100.00;101765.25;5020970;28;45436;-77
2023/12/23 04:49:39;;;;;;;;;1.00;0.00;;;;;9.95;100.00;101755.16;5041246;28;45892;-77
2023/12/23 04:52:05;;;;;;;;;0.00;0.00;;;;;10.12;100.00;101781.09;5016098;28;45607;-77
2023/12/23 04:54:32;;;;;;;;;0.00;0.00;;;;;10.00;100.00;101762.09;5038384;28;45367;-77
2023/12/23 04:56:57;;;;;;;;;0.67;0.00;;;;;10.03;100.00;101780.50;5039532;28;46391;-78
2023/12/23 04:59:22;;;;;;;;;1.00;0.00;;;;;9.94;100.00;101766.66;5043164;28;45596;-77
2023/12/23 05:01:49;;;;;;;;;0.00;0.00;;;;;10.10;100.00;101780.28;5016644;28;48828;-78
2023/12/23 05:04:14;;;;;;;;;0.33;0.00;;;;;10.11;100.00;101783.81;5036440;28;46369;-78
2023/12/23 05:06:39;;;;;;;;;0.00;0.00;;;;;10.06;100.00;101788.34;5018394;28;45449;-77
2023/12/23 05:09:05;;;;;;;;;0.00;0.00;;;;;10.11;100.00;101804.94;5039532;28;45408;-77
2023/12/23 05:11:31;;;;;;;;;0.67;0.00;;;;;10.05;100.00;101779.53;5039336;28;45791;-77
2023/12/23 05:13:56;;;;;;;;;0.00;0.00;;;;;9.97;100.00;101775.41;5040135;28;46448;-77
2023/12/23 05:16:21;;;;;;;;;1.00;0.00;;;;;10.04;100.00;101780.47;5020364;28;46427;-77
2023/12/23 05:18:47;;;;;;;;;1.00;0.00;;;;;10.11;100.00;101784.66;5039370;28;45307;-77
2023/12/23 05:21:12;;;;;;;;;2.33;0.00;;;;;10.12;100.00;101791.66;5038310;28;57061;-77
2023/12/23 05:23:37;;;;;;;;;0.00;0.00;;;;;10.05;100.00;101781.31;5038329;28;45469;-77
2023/12/23 05:26:03;;;;;;;;;0.00;0.00;;;;;10.10;100.00;101784.72;5020388;28;45558;-77
2023/12/23 05:28:28;;;;;;;;;1.00;0.00;;;;;9.95;100.00;101760.44;5044211;28;45463;-77
2023/12/23 05:30:54;;;;;;;;;2.33;0.00;;;;;10.13;100.00;101787.25;5039216;28;45673;-77
2023/12/23 05:33:24;;;;;;;;;0.00;0.00;;;;;10.06;100.00;101767.19;5038006;28;46245;-77
2023/12/23 05:35:49;;;;;;;;;0.00;0.00;;;;;10.05;100.00;101776.03;5037310;28;45368;-77
2023/12/23 05:38:14;;;;;;;;;1.33;0.00;;;;;10.04;100.00;101758.47;5037873;28;45422;-77
2023/12/23 05:40:40;;;;;;;;;0.00;0.00;;;;;10.17;100.00;101773.09;5020366;28;45588;-77
2023/12/23 05:43:05;;;;;;;;;0.00;0.00;;;;;10.10;100.00;101755.63;5020045;28;47964;-77
2023/12/23 05:45:30;;;;;;;;;0.00;0.00;;;;;9.97;100.00;101743.69;5039288;28;45377;-78
2023/12/23 05:47:56;;;;;;;;;0.00;0.00;;;;;10.11;100.00;101770.59;5037942;28;45246;-76
2023/12/23 05:50:21;;;;;;;;;0.00;0.00;;;;;10.17;100.00;101770.44;5037108;28;56835;-76
2023/12/23 05:52:46;;;;;;;;;0.00;0.00;;;;;10.13;100.00;101758.19;5037970;28;46281;-77
2023/12/23 05:55:11;;;;;;;;;1.00;0.00;;;;;10.23;100.00;101786.97;5038766;28;45440;-77
2023/12/23 05:57:37;;;;;;;;;0.00;0.00;;;;;10.19;100.00;101769.47;5038102;28;45329;-76
2023/12/23 06:00:05;;;;;;;;;0.00;0.00;;;;;10.07;100.00;101750.44;5038716;28;45361;-76
2023/12/23 06:02:30;;;;;;;;;1.00;0.00;;;;;10.27;100.00;101780.69;5019068;28;46697;-77
2023/12/23 06:04:55;;;;;;;;;1.00;0.00;;;;;10.14;100.00;101758.19;5038420;28;45862;-77
2023/12/23 06:07:21;;;;;;;;;0.00;0.00;;;;;10.28;100.00;101785.06;5022048;28;45599;-77
2023/12/23 06:09:46;;;;;;;;;1.00;0.00;;;;;10.19;100.00;101787.97;5039105;28;64082;-77
2023/12/23 06:12:11;;;;;;;;;0.33;0.00;;;;;10.26;100.00;101778.09;5035537;28;45351;-77
2023/12/23 06:14:37;;;;;;;;;0.00;0.00;;;;;10.33;100.00;101787.56;5021397;28;45762;-77
2023/12/23 06:17:02;;;;;;;;;1.00;0.00;;;;;10.35;100.00;101780.44;5040987;28;45479;-77
2023/12/23 06:19:27;;;;;;;;;0.00;0.00;;;;;10.32;100.00;101789.34;5038507;28;45433;-76
2023/12/23 06:21:53;;;;;;;;;0.00;0.00;;;;;10.29;100.00;101785.91;5020232;28;47462;-77
2023/12/23 06:24:18;;;;;;;;;0.00;0.00;;;;;10.25;100.00;101782.50;5018896;28;60388;-76
2023/12/23 06:26:43;;;;;;;;;1.67;1.00;;;;;10.35;100.00;101794.53;5038916;28;45277;-77
2023/12/23 06:29:09;;;;;;;;;0.00;0.00;;;;;10.27;100.00;101775.41;5037870;28;45551;-77
2023/12/23 06:31:34;;;;;;;;;0.00;0.00;;;;;10.38;100.00;101793.56;5037666;28;45501;-77
2023/12/23 06:34:00;;;;;;;;;2.00;0.00;;;;;10.38;100.00;101791.78;5035364;28;45391;-77
2023/12/23 06:36:25;;;;;;;;;0.00;0.00;;;;;10.28;100.00;101765.66;5019572;28;45421;-77
2023/12/23 06:38:50;;;;;;;;;1.00;0.00;;;;;10.34;100.00;101768.16;5037579;28;45541;-77
2023/12/23 06:41:16;;;;;;;;;1.00;1.00;;;;;10.38;100.00;101786.50;5037102;28;52868;-79
2023/12/23 06:43:41;;;;;;;;;2.00;0.00;;;;;10.40;100.00;101787.31;5017299;28;58976;-77
2023/12/23 06:46:10;;;;;;;;;0.00;0.00;;;;;10.36;100.00;101779.53;5037209;28;45507;-77
2023/12/23 06:48:35;;;;;;;;;0.00;0.00;;;;;10.27;100.00;101759.53;5039897;28;45539;-77
2023/12/23 06:51:01;;;;;;;;;0.00;0.00;;;;;10.35;100.00;101761.94;5022253;28;47331;-76
2023/12/23 06:53:26;;;;;;;;;0.00;0.00;;;;;10.35;100.00;101768.09;5040972;28;45440;-77
2023/12/23 06:55:51;;;;;;;;;0.00;0.00;;;;;10.28;100.00;101763.03;5040996;28;45337;-77
2023/12/23 06:58:16;;;;;;;;;0.33;0.00;;;;;10.48;100.00;101795.03;5040554;28;51459;-78
2023/12/23 07:00:42;;;;;;;;;0.00;0.00;;;;;10.31;100.00;101771.72;5040665;28;46012;-78
2023/12/23 07:03:08;;;;;;;;;1.00;0.00;;;;;10.50;100.00;101801.16;5040385;28;45373;-78
2023/12/23 07:05:33;;;;;;;;;0.00;0.00;;;;;10.43;100.00;101795.19;5022531;28;45569;-78
2023/12/23 07:07:58;;;;;;;;;0.00;0.00;;;;;10.29;100.00;101770.94;5019825;28;45490;-78
2023/12/23 07:10:24;;;;;;;;;1.00;0.00;;;;;10.49;100.00;101815.28;5038805;28;52331;-78
2023/12/23 07:12:49;;;;;;;;;2.00;0.00;;;;;10.42;100.00;101801.38;5033221;28;45531;-78
2023/12/23 07:15:15;;;;;;;;;0.00;0.00;;;;;10.54;100.00;101815.13;5041548;28;45559;-76
2023/12/23 07:17:40;;;;;;;;;0.00;0.00;;;;;10.47;100.00;101797.72;5041652;28;45511;-77
2023/12/23 07:20:09;;;;;;;;;0.00;0.00;;;;;10.54;100.00;101807.19;5019102;28;47988;-80
2023/12/23 07:22:34;;;;;;;;;0.00;0.00;;;;;10.50;100.00;101802.91;5030350;28;45515;-79
2023/12/23 07:24:59;;;;;;;;;1.00;0.00;;;;;10.57;100.00;101817.69;5030640;28;45626;-79
2023/12/23 07:27:25;;;;;;;;;0.33;0.00;;;;;10.58;100.00;101820.28;5030034;28;45483;-80
2023/12/23 07:29:50;;;;;;;;;0.00;0.00;;;;;10.47;100.00;101822.38;5032176;28;45511;-79
2023/12/23 07:32:15;;;;;;;;;0.00;0.00;;;;;10.54;100.00;101823.91;5018079;28;45672;-80
2023/12/23 07:34:41;;;;;;;;;0.67;0.00;;;;;10.59;100.00;101829.94;5047378;28;45913;-80
2023/12/23 07:37:35;;;;;;;;;0.00;0.00;;;;;10.13;100.00;101752.91;5050403;28;45506;-80
2023/12/23 07:40:07;;;;;;;;;3.33;1.00;;;;;10.09;100.00;101741.53;5045639;28;46897;-80
2023/12/23 07:42:32;;;;;;;;;1.00;0.00;;;;;10.11;100.00;101779.34;5026120;28;45507;-79
2023/12/23 07:44:58;;;;;;;;;0.00;0.00;;;;;10.61;100.00;101851.91;5042326;28;45471;-80
2023/12/23 07:47:23;;;;;;;;;0.00;0.00;;;;;10.44;100.00;101822.47;5031420;28;54020;-79
2023/12/23 07:49:48;;;;;;;;;1.33;0.00;;;;;10.59;100.00;101845.81;5046732;28;48551;-80
2023/12/23 07:52:53;;;;;;;;;1.67;0.33;;;;;10.62;100.00;101845.72;5028824;28;45382;-80
2023/12/23 07:55:20;;;;;;;;;0.00;0.00;;;;;10.01;100.00;101737.41;5021008;28;45645;-79
2023/12/23 07:57:45;;;;;;;;;0.00;0.00;;;;;10.56;100.00;101823.88;5046215;28;45497;-79
2023/12/23 08:00:11;;;;;;;;;0.33;0.00;;;;;10.61;100.00;101822.81;5024639;28;46292;-81
2023/12/23 08:02:36;;;;;;;;;0.00;0.00;;;;;10.65;100.00;101818.31;5024861;28;45313;-79
2023/12/23 08:05:02;;;;;;;;;2.00;0.00;;;;;10.52;100.00;101794.00;5040996;28;51681;-79
2023/12/23 08:07:27;;;;;;;;;0.00;0.00;;;;;10.65;100.00;101813.88;5029251;28;45510;-81
2023/12/23 08:09:53;;;;;;;;;0.00;0.00;;;;;10.53;100.00;101797.53;5047007;28;45987;-79
2023/12/23 08:12:18;;;;;;;;;0.00;0.00;;;;;10.51;100.00;101791.41;5028485;28;45424;-79
2023/12/23 08:14:43;;;;;;;;;1.00;1.00;;;;;10.62;100.00;101811.34;5054396;28;61954;-79
2023/12/23 08:17:10;;;;;;;;;4.00;0.00;;;;;10.62;100.00;101807.81;5032905;28;45452;-80
2023/12/23 08:19:35;;;;;;;;;0.00;0.00;;;;;10.53;100.00;101797.53;5039718;28;45517;-80
2023/12/23 08:22:01;;;;;;;;;1.00;0.00;;;;;10.68;100.00;101829.66;5026216;28;54467;-79
2023/12/23 08:24:26;;;;;;;;;2.00;1.00;;;;;10.69;100.00;101836.69;5042235;28;45266;-77
2023/12/23 08:26:51;;;;;;;;;1.33;0.67;;;;;10.52;100.00;101809.88;5044694;28;45440;-79
2023/12/23 08:29:17;;;;;;;;;1.00;1.00;;;;;10.62;100.00;101828.97;5029954;28;46359;-79
2023/12/23 08:31:45;;;;;;;;;0.00;0.00;;;;;10.71;100.00;101848.09;5044008;28;56548;-77
2023/12/23 08:34:11;;;;;;;;;0.00;0.00;;;;;10.67;100.00;101838.50;5015077;28;45480;-77
2023/12/23 08:36:37;;;;;;;;;0.00;0.00;;;;;10.69;100.00;101854.34;5040554;28;45443;-77
2023/12/23 08:39:02;;;;;;;;;0.00;0.00;;;;;10.58;100.00;101825.56;5021082;28;62109;-77
2023/12/23 08:41:27;;;;;;;;;0.00;0.00;;;;;10.74;100.00;101858.56;5039977;28;45498;-76
2023/12/23 08:43:53;;;;;;;;;0.00;0.00;;;;;10.65;100.00;101850.91;5038373;28;45552;-77
2023/12/23 08:46:18;;;;;;;;;0.00;0.00;;;;;10.50;100.00;101822.31;5026871;28;45449;-77
2023/12/23 08:48:43;;;;;;;;;2.00;0.00;;;;;10.71;100.00;101869.25;5020630;28;46445;-77
2023/12/23 08:51:09;;;;;;;;;2.33;0.00;;;;;10.65;100.00;101842.13;5046248;28;45348;-79
2023/12/23 08:53:35;;;;;;;;;0.67;0.00;;;;;10.68;100.00;101849.94;5019917;28;45438;-79
2023/12/23 08:56:00;;;;;;;;;2.00;0.00;;;;;10.60;100.00;101838.75;5058207;28;45392;-77
2023/12/23 08:58:26;;;;;;;;;1.00;0.00;;;;;10.66;100.00;101841.22;5037827;28;46632;-80
2023/12/23 09:00:52;;;;;;;;;0.00;0.00;;;;;10.69;100.00;101841.97;5040728;28;45386;-79
2023/12/23 09:03:17;;;;;;;;;0.00;0.00;;;;;10.79;100.00;101832.84;5020738;28;45305;-79
2023/12/23 09:05:43;;;;;;;;;4.00;0.67;;;;;10.68;100.00;101821.72;5038231;28;45327;-79
2023/12/23 09:08:08;;;;;;;;;0.00;0.00;;;;;10.65;100.00;101816.53;5038026;28;46444;-79
2023/12/23 09:10:34;;;;;;;;;0.67;0.33;;;;;10.55;100.00;101815.09;5037357;28;45399;-80
2023/12/23 09:12:59;;;;;;;;;0.00;0.00;;;;;10.81;100.00;101849.53;5032059;28;50902;-79
2023/12/23 09:15:25;;;;;;;;;1.00;0.00;;;;;10.85;100.00;101850.31;5039167;28;45428;-79
2023/12/23 09:17:50;;;;;;;;;2.00;0.00;;;;;10.89;100.00;101844.88;5046840;28;45391;-78
2023/12/23 09:20:16;;;;;;;;;0.00;0.00;;;;;10.90;100.00;101846.59;5044195;28;45443;-79
2023/12/23 09:22:41;;;;;;;;;0.00;0.00;;;;;10.95;100.00;101833.22;5036154;28;48105;-78
2023/12/23 09:25:10;;;;;;;;;1.67;0.00;;;;;10.85;100.00;101811.47;5027109;28;45361;-79
2023/12/23 09:27:35;;;;;;;;;1.00;0.00;;;;;10.99;100.00;101830.41;5055702;28;45359;-80
2023/12/23 09:30:00;;;;;;;;;2.00;0.00;;;;;11.02;100.00;101831.25;5045918;28;45420;-80
2023/12/23 09:32:26;;;;;;;;;0.00;0.00;;;;;11.06;100.00;101835.53;5024609;28;45387;-78
2023/12/23 09:34:54;;;;;;;;;0.00;0.00;;;;;10.96;100.00;101827.84;5035819;28;45590;-79
2023/12/23 09:37:19;;;;;;;;;0.00;0.00;;;;;10.92;100.00;101822.72;5046016;28;45674;-80
2023/12/23 09:39:45;;;;;;;;;0.00;0.00;;;;;11.03;100.00;101836.47;5022773;28;45473;-80
2023/12/23 09:42:13;;;;;;;;;0.00;0.00;;;;;11.17;100.00;101859.84;5041336;28;45483;-79
2023/12/23 09:44:43;;;;;;;;;1.33;0.00;;;;;10.81;100.00;101785.16;5021932;28;45825;-81
2023/12/23 09:47:09;;;;;;;;;1.67;1.33;;;;;10.99;100.00;101811.03;5024603;28;45584;-82
2023/12/23 09:49:38;;;;;;;;;0.00;0.00;;;;;10.66;100.00;101764.50;5040937;28;45226;-80
2023/12/23 09:52:03;;;;;;;;;0.00;0.00;;;;;11.02;100.00;101831.25;5037296;28;45496;-80
2023/12/23 09:54:37;;;;;;;;;1.00;1.00;;;;;10.63;100.00;101754.00;5036216;28;45383;-89
2023/12/23 09:57:02;;;;;;;;;4.00;1.00;;;;;10.92;100.00;101786.56;5021970;28;47461;-83
2023/12/23 09:59:28;;;;;;;;;0.00;0.00;;;;;11.30;100.00;101824.09;5016815;28;45387;-82
2023/12/23 10:02:21;;;;;;;;;;;;;;;;;;;;;
2023/12/23 10:04:47;;;;;;;;;0.33;0.33;;;;;11.41;100.00;101869.63;5034900;28;71853;-86
2023/12/23 10:07:14;;;;;;;;;0.00;0.00;;;;;11.47;100.00;101851.75;5037503;28;47676;-80
2023/12/23 10:09:59;;;;;;;;;1.67;0.00;;;;;11.49;100.00;101847.25;5031903;28;45419;-84
2023/12/23 10:12:25;;;;;;;;;0.00;0.00;;;;;11.25;100.00;101823.41;5034119;28;45520;-82
2023/12/23 10:14:51;;;;;;;;;1.00;0.00;;;;;11.01;100.00;101777.44;5039013;28;45444;-82
2023/12/23 10:17:19;;;;;;;;;1.67;0.67;;;;;11.17;100.00;101786.59;5029363;28;47373;-81
2023/12/23 10:19:48;;;;;;;;;1.33;0.00;;;;;11.49;100.00;101817.25;5028881;28;45513;-81
2023/12/23 10:22:16;;;;;;;;;3.67;0.00;;;;;11.39;100.00;101818.47;5033118;28;45653;-82
2023/12/23 10:24:56;;;;;;;;;1.00;0.00;;;;;11.57;100.00;101811.69;5032373;28;45575;-81
2023/12/23 10:27:24;;;;;;;;;0.00;0.00;;;;;11.24;100.00;101779.28;5041887;28;46331;-82
2023/12/23 10:29:53;;;;;;;;;0.00;0.00;;;;;11.46;100.00;101817.34;5025324;28;45254;-81
2023/12/23 10:32:23;;;;;;;;;2.00;0.00;;;;;11.31;100.00;101789.63;5043121;28;45421;-81
2023/12/23 10:34:52;;;;;;;;;0.00;0.00;;;;;11.66;100.00;101846.69;5047173;28;45350;-82
2023/12/23 10:37:19;;;;;;;;;1.33;0.00;;;;;11.76;100.00;101828.69;5042332;28;46177;-81
2023/12/23 10:40:09;;;;;;;;;1.67;0.67;;;;;11.75;100.00;101838.44;5042207;28;45321;-82
2023/12/23 10:42:36;;;;;;;;;1.00;0.00;;;;;11.29;100.00;101742.91;5042926;28;45332;-81
2023/12/23 10:45:04;;;;;;;;;1.00;1.00;;;;;11.48;100.00;101800.47;5042403;28;45527;-81
2023/12/23 10:47:32;;;;;;;;;2.33;0.00;;;;;11.74;100.00;101823.47;5041328;28;45303;-81
2023/12/23 10:49:59;;;;;;;;;0.00;0.00;;;;;11.72;100.00;101795.28;5023484;28;45573;-81
2023/12/23 10:52:26;;;;;;;;;1.00;1.00;;;;;11.34;100.00;101731.25;5041695;28;45425;-81
2023/12/23 10:54:52;;;;;;;;;2.00;0.00;;;;;11.78;100.00;101798.56;5041753;28;45464;-82
2023/12/23 10:57:25;;;;;;;;;0.00;0.00;;;;;11.72;100.00;101790.84;5042759;28;46158;-83
2023/12/23 10:59:50;;;;;;;;;0.33;0.33;;;;;11.73;100.00;101778.47;5041355;28;45301;-82
2023/12/23 11:02:26;;;;;;;;;2.00;0.00;;;;;11.50;100.00;101766.00;5041896;28;45679;-82
2023/12/23 11:04:52;;;;;;;;;2.00;0.00;;;;;11.89;100.00;101804.34;5017736;28;46060;-78
2023/12/23 11:07:24;;;;;;;;;2.00;0.00;;;;;11.90;100.00;101822.00;5043529;28;45484;-79
2023/12/23 11:09:51;;;;;;;;;1.00;1.00;;;;;11.91;100.00;101797.19;5043793;28;45358;-79
2023/12/23 11:12:17;;;;;;;;;0.67;0.67;;;;;11.78;100.00;101757.97;5059425;28;45379;-79
2023/12/23 11:14:43;;;;;;;;;1.00;1.00;;;;;11.46;100.00;101716.69;5031824;28;45238;-79
2023/12/23 11:17:31;;;;;;;;;3.00;0.33;;;;;11.63;100.00;101732.84;5045595;28;46068;-78
2023/12/23 11:20:01;;;;;;;;;1.00;1.00;;;;;11.84;100.00;101763.03;5028834;28;45380;-79
2023/12/23 11:22:37;;;;;;;;;2.00;0.00;;;;;11.89;100.00;101759.28;5020137;28;45342;-77
2023/12/23 11:25:03;;;;;;;;;1.00;0.00;;;;;11.91;100.00;101757.44;5012715;28;45385;-79
2023/12/23 11:27:34;;;;;;;;;0.67;0.00;;;;;12.08;100.00;101775.38;5040693;28;45460;-78
2023/12/23 11:30:04;;;;;;;;;0.00;0.00;;;;;12.00;100.00;101764.19;5041432;28;45268;-78
2023/12/23 11:32:33;;;;;;;;;3.33;2.00;;;;;11.83;100.00;101730.38;5042332;28;45583;-80
2023/12/23 11:34:59;;;;;;;;;3.00;0.00;;;;;11.99;100.00;101765.97;5040454;28;45447;-80
2023/12/23 11:37:48;;;;;;;;;2.00;1.00;;;;;12.07;100.00;101781.59;5024592;28;46625;-83
2023/12/23 11:40:15;;;;;;;;;0.00;0.00;;;;;11.52;100.00;101676.72;5036703;28;45465;-85
2023/12/23 11:42:41;;;;;;;;;2.33;0.00;;;;;11.67;100.00;101718.56;5021622;28;45587;-83
2023/12/23 11:45:09;;;;;;;;;1.00;1.00;;;;;11.86;100.00;101748.81;5042641;28;45361;-84
2023/12/23 11:47:35;;;;;;;;;2.00;1.00;;;;;12.11;100.00;101777.03;5043019;28;46206;-84
2023/12/23 11:50:00;;;;;;;;;1.33;0.33;;;;;11.68;100.00;101696.44;5041854;28;45340;-84
2023/12/23 11:52:27;;;;;;;;;2.00;0.33;;;;;11.88;100.00;101731.03;5042102;28;45603;-84
2023/12/23 11:54:53;;;;;;;;;1.00;0.00;;;;;11.83;100.00;101722.41;5041405;28;45340;-84
2023/12/23 11:57:18;;;;;;;;;2.00;1.00;;;;;11.85;100.00;101725.84;5041588;28;46185;-84
2023/12/23 11:59:45;;;;;;;;;0.00;0.00;;;;;12.23;100.00;101782.75;5042159;28;45432;-84
2023/12/23 12:02:11;;;;;;;;;0.00;0.00;;;;;12.12;100.00;101746.94;5022766;28;45336;-84
2023/12/23 12:04:36;;;;;;;;;2.00;0.00;;;;;11.99;100.00;101720.03;5041753;28;45405;-84
2023/12/23 12:07:02;;;;;;;;;1.00;1.00;;;;;11.93;100.00;101734.41;5041669;28;45546;-85
2023/12/23 12:09:27;;;;;;;;;0.00;0.00;;;;;11.90;100.00;101718.63;5041006;28;45428;-84
2023/12/23 12:11:53;;;;;;;;;2.00;0.00;;;;;11.99;100.00;101715.59;5041051;28;45476;-86